createdAt,value
2019-02-20T00:00:08.252Z,5.70
2019-02-20T00:02:36.656Z,5.80
2019-02-20T00:05:05.856Z,5.70
2019-02-20T00:07:34.306Z,5.70
2019-02-20T00:10:02.741Z,5.70
2019-02-20T00:12:31.137Z,5.90
2019-02-20T00:17:27.646Z,5.90
2019-02-20T00:19:56.034Z,5.80
2019-02-20T00:22:24.435Z,5.80
2019-02-20T00:24:52.838Z,5.80
2019-02-20T00:27:21.247Z,5.80
2019-02-20T00:29:49.639Z,5.80
2019-02-20T00:34:46.168Z,5.80
2019-02-20T00:39:42.641Z,5.80
2019-02-20T00:44:40.757Z,5.80
2019-02-20T00:47:19.245Z,5.80
2019-02-20T00:49:47.909Z,5.80
2019-02-20T00:52:23.912Z,5.80
2019-02-20T00:54:52.362Z,5.70
2019-02-20T00:57:20.772Z,5.70
2019-02-20T00:59:49.203Z,5.60
2019-02-20T01:02:17.596Z,5.60
2019-02-20T01:04:46.010Z,5.50
2019-02-20T01:07:14.475Z,5.50
2019-02-20T01:09:42.888Z,5.50
2019-02-20T01:12:30.626Z,5.50
2019-02-20T01:14:59.020Z,5.40
2019-02-20T01:19:55.585Z,5.40
2019-02-20T01:22:24.003Z,5.40
2019-02-20T01:24:52.399Z,5.40
2019-02-20T01:27:20.792Z,5.40
2019-02-20T01:29:49.191Z,5.40
2019-02-20T01:32:17.604Z,5.40
2019-02-20T01:37:33.432Z,5.40
2019-02-20T01:40:01.838Z,5.40
2019-02-20T01:44:58.417Z,5.40
2019-02-20T01:47:26.808Z,5.40
2019-02-20T01:49:55.218Z,5.40
2019-02-20T01:54:51.717Z,5.40
2019-02-20T01:57:20.114Z,5.40
2019-02-20T01:59:48.568Z,5.40
2019-02-20T02:02:17.026Z,5.40
2019-02-20T02:04:45.445Z,5.40
2019-02-20T02:07:13.833Z,5.30
2019-02-20T02:09:42.240Z,5.40
2019-02-20T02:12:10.632Z,5.40
2019-02-20T02:14:39.036Z,5.40
2019-02-20T02:17:07.419Z,5.40
2019-02-20T02:19:35.830Z,5.40
2019-02-20T02:22:04.217Z,5.40
2019-02-20T02:27:00.768Z,5.40
2019-02-20T02:31:57.317Z,5.40
2019-02-20T02:34:25.704Z,5.30
2019-02-20T02:36:54.116Z,5.40
2019-02-20T02:39:22.553Z,5.40
2019-02-20T02:41:50.952Z,5.40
2019-02-20T02:44:19.404Z,5.40
2019-02-20T02:46:47.864Z,5.40
2019-02-20T02:49:16.301Z,5.40
2019-02-20T02:51:44.698Z,5.40
2019-02-20T02:54:13.133Z,5.30
2019-02-20T03:01:37.792Z,5.40
2019-02-20T03:04:06.176Z,5.40
2019-02-20T03:06:34.628Z,5.40
2019-02-20T03:09:04.943Z,5.30
2019-02-20T03:11:33.378Z,5.40
2019-02-20T03:14:01.780Z,5.40
2019-02-20T03:16:30.226Z,5.40
2019-02-20T03:18:58.620Z,5.30
2019-02-20T03:21:27.020Z,5.30
2019-02-20T03:23:55.415Z,5.30
2019-02-20T03:26:23.822Z,5.30
2019-02-20T03:31:20.300Z,5.30
2019-02-20T03:33:48.970Z,5.30
2019-02-20T03:38:45.443Z,5.30
2019-02-20T03:41:13.875Z,5.30
2019-02-20T03:43:42.283Z,5.20
2019-02-20T03:46:10.745Z,5.20
2019-02-20T03:48:39.195Z,5.20
2019-02-20T03:53:35.761Z,5.20
2019-02-20T03:56:04.296Z,5.30
2019-02-20T03:58:33.355Z,5.30
2019-02-20T04:01:02.121Z,5.30
2019-02-20T04:03:30.636Z,5.20
2019-02-20T04:05:59.063Z,5.20
2019-02-20T04:08:27.469Z,5.00
2019-02-20T04:10:55.865Z,4.90
2019-02-20T04:15:52.363Z,4.90
2019-02-20T04:18:20.783Z,4.90
2019-02-20T04:21:08.615Z,4.90
2019-02-20T04:23:37.008Z,4.90
2019-02-20T04:26:05.598Z,5.00
2019-02-20T04:28:34.004Z,5.00
2019-02-20T04:31:02.408Z,5.00
2019-02-20T04:33:30.869Z,5.00
2019-02-20T04:35:59.362Z,5.10
2019-02-20T04:38:27.774Z,5.00
2019-02-20T04:40:56.325Z,5.10
2019-02-20T04:43:24.721Z,5.10
2019-02-20T04:48:21.199Z,5.20
2019-02-20T04:50:49.591Z,5.20
2019-02-20T04:53:17.995Z,5.10
2019-02-20T04:55:46.391Z,5.00
2019-02-20T05:00:46.484Z,4.90
2019-02-20T05:03:14.904Z,4.90
2019-02-20T05:08:11.482Z,4.80
2019-02-20T05:10:40.217Z,4.80
2019-02-20T05:13:08.637Z,4.80
2019-02-20T05:15:37.077Z,4.80
2019-02-20T05:18:05.510Z,4.70
2019-02-20T05:20:34.083Z,4.70
2019-02-20T05:23:02.519Z,4.70
2019-02-20T05:25:30.910Z,4.60
2019-02-20T05:27:59.334Z,4.60
2019-02-20T05:37:51.975Z,4.70
2019-02-20T05:40:20.407Z,4.70
2019-02-20T05:42:48.824Z,4.60
2019-02-20T05:45:17.205Z,4.50
2019-02-20T05:47:45.651Z,4.40
2019-02-20T05:50:14.040Z,4.30
2019-02-20T05:52:42.852Z,4.30
2019-02-20T05:55:11.401Z,4.30
2019-02-20T05:57:39.793Z,4.40
2019-02-20T06:05:06.561Z,4.60
2019-02-20T06:07:34.958Z,4.70
2019-02-20T06:10:03.906Z,4.70
2019-02-20T06:12:32.338Z,4.70
2019-02-20T06:15:00.781Z,4.80
2019-02-20T06:17:29.212Z,4.80
2019-02-20T06:19:57.654Z,4.70
2019-02-20T06:22:26.039Z,4.70
2019-02-20T06:24:54.480Z,4.70
2019-02-20T06:27:22.932Z,4.70
2019-02-20T06:32:19.410Z,4.70
2019-02-20T06:34:47.822Z,4.70
2019-02-20T06:37:16.217Z,4.80
2019-02-20T06:39:44.620Z,4.80
2019-02-20T06:42:13.063Z,4.70
2019-02-20T06:44:41.570Z,4.70
2019-02-20T06:49:39.968Z,4.80
2019-02-20T06:54:36.520Z,4.90
2019-02-20T06:57:04.909Z,4.90
2019-02-20T06:59:33.352Z,4.90
2019-02-20T07:04:29.836Z,5.10
2019-02-20T07:09:54.970Z,5.20
2019-02-20T07:12:28.989Z,5.20
2019-02-20T07:15:06.035Z,5.20
2019-02-20T07:17:46.266Z,5.30
2019-02-20T07:20:38.692Z,5.30
2019-02-20T07:23:22.380Z,5.40
2019-02-20T07:26:10.576Z,5.50
2019-02-20T07:28:59.920Z,5.60
2019-02-20T07:31:28.320Z,5.80
2019-02-20T07:33:56.712Z,5.90
2019-02-20T07:36:25.195Z,6.10
2019-02-20T07:41:21.663Z,6.40
2019-02-20T07:43:50.061Z,6.50
2019-02-20T07:46:18.549Z,6.70
2019-02-20T07:48:46.941Z,6.70
2019-02-20T07:51:15.411Z,6.80
2019-02-20T07:56:11.880Z,6.70
2019-02-20T07:58:40.280Z,6.70
2019-02-20T08:01:08.688Z,6.90
2019-02-20T08:03:37.108Z,7.00
2019-02-20T08:06:05.502Z,7.10
2019-02-20T08:08:33.947Z,7.20
2019-02-20T08:11:02.399Z,7.20
2019-02-20T08:13:39.152Z,7.30
2019-02-20T08:16:00.974Z,7.50
2019-02-20T08:18:29.374Z,7.60
2019-02-20T08:20:57.814Z,7.80
2019-02-20T08:23:26.209Z,8.00
2019-02-20T08:25:54.652Z,8.20
2019-02-20T08:28:23.043Z,8.30
2019-02-20T08:30:51.450Z,8.30
2019-02-20T08:33:19.877Z,8.30
2019-02-20T08:35:48.316Z,8.30
2019-02-20T08:38:16.720Z,8.40
2019-02-20T08:40:45.120Z,8.60
2019-02-20T08:43:13.536Z,8.90
2019-02-20T08:45:42.004Z,9.00
2019-02-20T08:48:10.446Z,9.10
2019-02-20T08:53:06.984Z,9.20
2019-02-20T08:58:03.457Z,9.50
2019-02-20T09:00:32.020Z,9.60
2019-02-20T09:03:00.432Z,9.60
2019-02-20T09:05:28.870Z,9.60
2019-02-20T09:07:57.274Z,9.70
2019-02-20T09:10:25.677Z,9.70
2019-02-20T09:12:54.264Z,9.80
2019-02-20T09:15:22.698Z,9.90
2019-02-20T09:17:51.103Z,9.90
2019-02-20T09:20:19.534Z,9.90
2019-02-20T09:22:47.976Z,9.70
2019-02-20T09:27:46.373Z,9.60
2019-02-20T09:30:15.850Z,9.60
2019-02-20T09:32:44.249Z,9.50
2019-02-20T09:35:13.131Z,9.40
2019-02-20T09:37:41.532Z,9.30
2019-02-20T09:42:40.055Z,9.30
2019-02-20T09:45:09.519Z,9.20
2019-02-20T09:47:37.934Z,9.30
2019-02-20T09:50:08.273Z,9.40
2019-02-20T09:52:36.734Z,9.40
2019-02-20T09:55:08.112Z,9.40
2019-02-20T09:57:36.505Z,9.50
2019-02-20T10:00:08.027Z,9.50
2019-02-20T10:02:36.424Z,9.70
2019-02-20T10:05:06.572Z,9.80
2019-02-20T10:07:34.978Z,9.80
2019-02-20T10:10:03.876Z,9.90
2019-02-20T10:12:32.317Z,10.00
2019-02-20T10:15:00.774Z,10.00
2019-02-20T10:17:29.169Z,10.00
2019-02-20T10:19:57.599Z,10.00
2019-02-20T10:22:26.069Z,10.30
2019-02-20T10:24:54.480Z,10.60
2019-02-20T10:27:22.939Z,10.80
2019-02-20T10:29:51.344Z,11.10
2019-02-20T10:32:19.750Z,11.40
2019-02-20T10:34:48.199Z,11.80
2019-02-20T10:37:16.681Z,12.30
2019-02-20T10:39:45.103Z,12.30
2019-02-20T10:44:41.627Z,12.30
2019-02-20T10:49:38.152Z,12.60
2019-02-20T10:52:06.570Z,12.50
2019-02-20T10:54:34.988Z,12.40
2019-02-20T10:57:03.402Z,12.30
2019-02-20T10:59:31.854Z,12.70
2019-02-20T11:02:00.296Z,13.10
2019-02-20T11:04:28.748Z,13.40
2019-02-20T11:06:57.211Z,13.50
2019-02-20T11:09:25.628Z,13.50
2019-02-20T11:11:54.504Z,13.20
2019-02-20T11:14:23.232Z,13.10
2019-02-20T11:16:51.636Z,13.30
2019-02-20T11:19:20.048Z,13.40
2019-02-20T11:21:48.472Z,13.30
2019-02-20T11:24:17.934Z,13.10
2019-02-20T11:26:54.760Z,12.80
2019-02-20T11:29:16.749Z,12.60
2019-02-20T11:31:45.150Z,12.30
2019-02-20T11:34:13.552Z,12.20
2019-02-20T11:36:41.968Z,12.00
2019-02-20T11:39:11.699Z,12.00
2019-02-20T11:41:40.389Z,12.00
2019-02-20T11:44:08.796Z,12.00
2019-02-20T11:46:37.204Z,11.90
2019-02-20T11:51:33.779Z,11.80
2019-02-20T11:56:30.246Z,11.80
2019-02-20T11:58:58.645Z,11.80
2019-02-20T12:01:27.059Z,11.80
2019-02-20T12:03:55.458Z,11.90
2019-02-20T12:06:23.916Z,11.90
2019-02-20T12:08:52.321Z,11.80
2019-02-20T12:11:20.753Z,11.70
2019-02-20T12:13:49.196Z,11.60
2019-02-20T12:16:17.605Z,11.50
2019-02-20T12:18:46.008Z,11.40
2019-02-20T12:21:14.494Z,11.30
2019-02-20T12:23:42.903Z,11.10
2019-02-20T12:26:11.359Z,11.10
2019-02-20T12:28:39.767Z,11.00
2019-02-20T12:33:36.542Z,11.00
2019-02-20T12:36:05.013Z,11.00
2019-02-20T12:38:33.420Z,11.00
2019-02-20T12:41:01.828Z,11.10
2019-02-20T12:43:30.235Z,11.20
2019-02-20T12:45:58.639Z,11.20
2019-02-20T12:48:27.212Z,11.20
2019-02-20T12:50:55.603Z,11.20
2019-02-20T12:53:24.056Z,11.30
2019-02-20T12:55:52.457Z,11.40
2019-02-20T13:00:48.941Z,11.40
2019-02-20T13:03:17.360Z,11.40
2019-02-20T13:05:45.802Z,11.40
2019-02-20T13:08:14.311Z,11.40
2019-02-20T13:10:42.926Z,11.40
2019-02-20T13:13:11.342Z,11.40
2019-02-20T13:15:39.736Z,11.30
2019-02-20T13:18:08.212Z,11.40
2019-02-20T13:20:36.664Z,11.50
2019-02-20T13:23:05.074Z,11.70
2019-02-20T13:25:33.574Z,11.70
2019-02-20T13:28:01.984Z,11.60
2019-02-20T13:30:30.484Z,11.60
2019-02-20T13:35:27.031Z,11.60
2019-02-20T13:37:55.437Z,11.60
2019-02-20T13:40:23.836Z,11.50
2019-02-20T13:42:52.380Z,11.40
2019-02-20T13:47:48.954Z,11.10
2019-02-20T13:52:52.000Z,10.80
2019-02-20T13:55:15.937Z,10.60
2019-02-20T13:57:44.353Z,10.50
2019-02-20T14:00:13.548Z,10.40
2019-02-20T14:02:42.120Z,10.30
2019-02-20T14:05:10.603Z,10.10
2019-02-20T14:07:39.638Z,10.00
2019-02-20T14:10:12.551Z,9.90
2019-02-20T14:12:41.034Z,9.80
2019-02-20T14:15:11.582Z,9.90
2019-02-20T14:17:40.072Z,9.90
2019-02-20T14:20:10.612Z,9.80
2019-02-20T14:22:39.801Z,9.90
2019-02-20T14:25:10.040Z,9.90
2019-02-20T14:27:38.552Z,9.80
2019-02-20T14:30:11.717Z,9.90
2019-02-20T14:32:40.251Z,9.90
2019-02-20T14:35:10.934Z,9.90
2019-02-20T14:40:09.388Z,10.00
2019-02-20T14:45:12.153Z,10.20
2019-02-20T14:50:10.583Z,10.00
2019-02-20T14:52:39.593Z,9.80
2019-02-20T14:55:11.240Z,9.60
2019-02-20T14:57:39.683Z,9.60
2019-02-20T15:00:13.256Z,9.70
2019-02-20T15:02:41.659Z,9.80
2019-02-20T15:05:11.997Z,9.90
2019-02-20T15:07:40.260Z,9.90
2019-02-20T15:10:09.863Z,9.90
2019-02-20T15:12:38.328Z,9.80
2019-02-20T15:15:10.837Z,9.70
2019-02-20T15:17:39.515Z,9.70
2019-02-20T15:20:11.100Z,9.60
2019-02-20T15:22:39.975Z,9.60
2019-02-20T15:25:09.965Z,9.50
2019-02-20T15:27:38.435Z,9.50
2019-02-20T15:30:10.181Z,9.50
2019-02-20T15:32:38.584Z,9.50
2019-02-20T15:35:07.811Z,9.50
2019-02-20T15:37:36.406Z,9.40
2019-02-20T15:40:07.129Z,9.40
2019-02-20T15:45:04.573Z,9.30
2019-02-20T15:47:32.968Z,9.30
2019-02-20T15:50:01.376Z,9.30
2019-02-20T15:52:30.356Z,9.20
2019-02-20T15:54:58.764Z,9.20
2019-02-20T15:57:27.207Z,9.10
2019-02-20T15:59:55.696Z,9.10
2019-02-20T16:02:24.209Z,9.10
2019-02-20T16:04:52.668Z,9.00
2019-02-20T16:07:21.063Z,9.00
2019-02-20T16:09:50.093Z,9.00
2019-02-20T16:12:18.598Z,9.00
2019-02-20T16:14:47.026Z,8.90
2019-02-20T16:19:43.533Z,8.90
2019-02-20T16:22:12.048Z,8.90
2019-02-20T16:24:40.562Z,8.90
2019-02-20T16:27:09.343Z,8.80
2019-02-20T16:29:37.736Z,8.80
2019-02-20T16:32:06.141Z,8.80
2019-02-20T16:34:34.620Z,8.80
2019-02-20T16:39:31.184Z,8.70
2019-02-20T16:41:59.663Z,8.70
2019-02-20T16:44:28.437Z,8.60
2019-02-20T16:46:56.851Z,8.60
2019-02-20T16:49:25.244Z,8.50
2019-02-20T16:51:53.660Z,8.50
2019-02-20T16:54:22.096Z,8.40
2019-02-20T16:56:50.544Z,8.40
2019-02-20T16:59:18.939Z,8.30
2019-02-20T17:01:47.624Z,8.20
2019-02-20T17:04:16.035Z,8.20
2019-02-20T17:06:44.444Z,8.20
2019-02-20T17:09:12.964Z,8.10
2019-02-20T17:11:42.326Z,8.10
2019-02-20T17:14:10.730Z,8.00
2019-02-20T17:16:39.581Z,8.10
2019-02-20T17:19:08.020Z,8.00
2019-02-20T17:21:36.427Z,8.00
2019-02-20T17:24:04.933Z,8.00
2019-02-20T17:26:33.451Z,8.00
2019-02-20T17:29:01.958Z,7.90
2019-02-20T17:33:58.880Z,7.90
2019-02-20T17:36:27.323Z,7.80
2019-02-20T17:38:55.750Z,7.70
2019-02-20T17:41:24.219Z,7.70
2019-02-20T17:43:52.742Z,7.70
2019-02-20T17:46:21.377Z,7.50
2019-02-20T17:48:49.775Z,7.40
2019-02-20T17:51:18.168Z,7.30
2019-02-20T17:53:46.571Z,7.10
2019-02-20T17:56:14.968Z,7.10
2019-02-20T17:58:43.405Z,7.00
2019-02-20T18:01:13.773Z,7.10
2019-02-20T18:03:43.936Z,7.00
2019-02-20T18:06:12.344Z,7.00
2019-02-20T18:11:08.829Z,7.00
2019-02-20T18:13:37.235Z,7.00
2019-02-20T18:16:05.633Z,7.00
2019-02-20T18:18:34.048Z,7.00
2019-02-20T18:21:02.446Z,7.00
2019-02-20T18:23:30.854Z,7.00
2019-02-20T18:25:59.250Z,7.10
2019-02-20T18:28:27.656Z,7.10
2019-02-20T18:30:56.049Z,7.00
2019-02-20T18:33:24.467Z,7.00
2019-02-20T18:35:52.863Z,7.00
2019-02-20T18:38:21.266Z,7.00
2019-02-20T18:43:17.742Z,7.00
2019-02-20T18:45:46.246Z,6.90
2019-02-20T18:48:14.699Z,6.80
2019-02-20T18:50:43.120Z,6.80
2019-02-20T18:53:11.515Z,6.80
2019-02-20T18:58:07.997Z,6.70
2019-02-20T19:00:36.411Z,6.70
2019-02-20T19:03:05.235Z,6.70
2019-02-20T19:08:05.564Z,6.60
2019-02-20T19:10:37.028Z,6.60
2019-02-20T19:13:23.419Z,6.70
2019-02-20T19:16:10.080Z,6.60
2019-02-20T19:19:02.903Z,6.60
2019-02-20T19:21:40.068Z,6.60
2019-02-20T19:24:29.617Z,6.60
2019-02-20T19:27:19.843Z,6.50
2019-02-20T19:30:18.044Z,6.50
2019-02-20T19:35:45.772Z,6.40
2019-02-20T19:38:17.298Z,6.40
2019-02-20T19:40:57.424Z,6.40
2019-02-20T19:46:45.193Z,6.40
2019-02-20T19:49:34.731Z,6.20
2019-02-20T19:52:39.108Z,6.10
2019-02-20T19:55:13.135Z,6.00
2019-02-20T19:57:59.800Z,5.90
2019-02-20T20:03:30.504Z,5.70
2019-02-20T20:06:01.989Z,5.70
2019-02-20T20:08:42.648Z,5.70
2019-02-20T20:11:44.207Z,5.60
2019-02-20T20:14:09.560Z,5.60
2019-02-20T20:16:59.291Z,5.60
2019-02-20T20:19:48.846Z,5.50
2019-02-20T20:22:46.035Z,5.50
2019-02-20T20:25:29.210Z,5.40
2019-02-20T20:28:08.378Z,5.40
2019-02-20T20:30:58.174Z,5.30
2019-02-20T20:33:54.965Z,5.20
2019-02-20T20:36:35.409Z,5.10
2019-02-20T20:41:58.845Z,5.00
2019-02-20T20:47:11.524Z,5.10
2019-02-20T20:49:58.294Z,5.20
2019-02-20T20:52:35.778Z,5.10
2019-02-20T20:55:39.161Z,5.10
2019-02-20T20:58:35.930Z,5.00
2019-02-20T21:01:10.327Z,5.00
2019-02-20T21:03:56.148Z,4.90
2019-02-20T21:07:06.533Z,4.70
2019-02-20T21:09:55.503Z,4.60
2019-02-20T21:12:27.035Z,4.60
2019-02-20T21:15:04.112Z,4.50
2019-02-20T21:17:41.068Z,4.50
2019-02-20T21:20:34.864Z,4.50
2019-02-20T21:23:12.314Z,4.50
2019-02-20T21:26:16.885Z,4.50
2019-02-20T21:28:48.360Z,4.40
2019-02-20T21:31:22.820Z,4.50
2019-02-20T21:34:19.798Z,4.40
2019-02-20T21:36:56.733Z,4.40
2019-02-20T21:39:31.278Z,4.40
2019-02-20T21:42:08.308Z,4.30
2019-02-20T21:45:00.767Z,4.20
2019-02-20T21:47:44.289Z,4.10
2019-02-20T21:50:18.272Z,4.10
2019-02-20T21:52:49.762Z,4.00
2019-02-20T21:55:37.714Z,4.00
2019-02-20T21:58:23.590Z,4.00
2019-02-20T22:03:42.442Z,4.10
2019-02-20T22:06:29.079Z,4.10
2019-02-20T22:09:00.594Z,4.10
2019-02-20T22:11:51.215Z,4.10
2019-02-20T22:14:31.452Z,4.00
2019-02-20T22:17:28.540Z,4.00
2019-02-20T22:22:41.690Z,4.10
2019-02-20T22:25:33.959Z,4.00
2019-02-20T22:28:23.769Z,4.00
2019-02-20T22:31:04.364Z,4.00
2019-02-20T22:33:47.936Z,4.00
2019-02-20T22:39:09.495Z,3.90
2019-02-20T22:42:06.696Z,3.90
2019-02-20T22:44:38.180Z,3.90
2019-02-20T22:50:00.357Z,3.90
2019-02-20T22:52:34.431Z,3.80
2019-02-20T22:57:47.037Z,3.80
2019-02-20T23:00:42.870Z,3.70
2019-02-20T23:03:32.157Z,3.60
2019-02-20T23:06:27.843Z,3.60
2019-02-20T23:09:14.537Z,3.50
2019-02-20T23:12:02.885Z,3.50
2019-02-20T23:19:29.015Z,3.50
2019-02-20T23:21:57.404Z,3.60
2019-02-20T23:24:25.808Z,3.60
2019-02-20T23:26:54.238Z,3.50
2019-02-20T23:31:50.803Z,3.40
2019-02-20T23:36:47.300Z,3.30
2019-02-20T23:39:15.705Z,3.40
2019-02-20T23:44:12.185Z,3.30
2019-02-20T23:46:59.920Z,3.40
2019-02-20T23:49:28.324Z,3.30
2019-02-20T23:54:25.065Z,3.30
2019-02-20T23:56:53.605Z,3.30
2019-02-20T23:59:22.020Z,3.30
